createdAt,value
2023-01-17T00:00:56.617Z,90.98
2023-01-17T00:02:01.456Z,90.89
2023-01-17T00:03:04.742Z,90.75
2023-01-17T00:04:26.440Z,90.66
2023-01-17T00:05:48.289Z,90.65
2023-01-17T00:07:09.725Z,90.74
2023-01-17T00:08:31.566Z,90.77
2023-01-17T00:09:53.003Z,90.72
2023-01-17T00:10:58.350Z,90.85
2023-01-17T00:12:05.631Z,90.73
2023-01-17T00:13:08.607Z,90.63
2023-01-17T00:14:11.601Z,90.86
2023-01-17T00:15:16.889Z,90.78
2023-01-17T00:16:20.052Z,90.84
2023-01-17T00:17:24.970Z,90.89
2023-01-17T00:18:27.889Z,90.79
2023-01-17T00:19:49.863Z,90.82
2023-01-17T00:21:11.343Z,90.67
2023-01-17T00:22:49.651Z,90.58
2023-01-17T00:24:24.811Z,90.64
2023-01-17T00:25:55.904Z,90.55
2023-01-17T00:27:14.400Z,90.64
2023-01-17T00:28:18.321Z,90.73
2023-01-17T00:29:21.225Z,90.73
2023-01-17T00:30:24.523Z,90.82
2023-01-17T00:31:27.655Z,90.51
2023-01-17T00:32:30.555Z,90.42
2023-01-17T00:33:34.180Z,90.63
2023-01-17T00:34:37.346Z,90.68
2023-01-17T00:35:40.539Z,90.29
2023-01-17T00:36:43.485Z,90.50
2023-01-17T00:37:46.646Z,90.61
2023-01-17T00:38:49.833Z,90.52
2023-01-17T00:39:52.769Z,90.76
2023-01-17T00:41:03.039Z,90.55
2023-01-17T00:42:06.183Z,90.50
2023-01-17T00:43:29.506Z,90.60
2023-01-17T00:44:51.423Z,90.63
2023-01-17T00:46:14.503Z,90.57
2023-01-17T00:47:35.945Z,90.55
2023-01-17T00:48:58.405Z,91.00
2023-01-17T00:50:20.058Z,90.92
2023-01-17T00:51:42.946Z,90.85
2023-01-17T00:53:04.446Z,90.93
2023-01-17T00:54:27.275Z,90.98
2023-01-17T00:55:48.844Z,90.98
2023-01-17T00:57:11.136Z,91.13
2023-01-17T00:58:32.789Z,90.96
2023-01-17T00:59:54.644Z,91.23
2023-01-17T01:01:16.713Z,91.12
2023-01-17T01:02:39.006Z,90.99
2023-01-17T01:04:00.757Z,91.11
2023-01-17T01:05:23.130Z,91.20
2023-01-17T01:06:44.794Z,91.44
2023-01-17T01:08:06.555Z,91.52
2023-01-17T01:09:28.298Z,91.01
2023-01-17T01:10:51.652Z,91.34
2023-01-17T01:12:13.267Z,91.25
2023-01-17T01:13:35.078Z,91.26
2023-01-17T01:14:57.565Z,91.43
2023-01-17T01:16:20.398Z,91.33
2023-01-17T01:17:42.426Z,91.42
2023-01-17T01:19:05.005Z,91.58
2023-01-17T01:20:27.585Z,91.31
2023-01-17T01:21:49.776Z,91.21
2023-01-17T01:23:11.601Z,91.44
2023-01-17T01:24:34.902Z,91.16
2023-01-17T01:25:57.041Z,91.47
2023-01-17T01:27:18.824Z,91.38
2023-01-17T01:28:41.036Z,91.54
2023-01-17T01:30:02.823Z,91.22
2023-01-17T01:31:25.305Z,91.12
2023-01-17T01:32:47.161Z,91.32
2023-01-17T01:33:52.242Z,91.52
2023-01-17T01:34:55.387Z,91.32
2023-01-17T01:35:58.314Z,91.52
2023-01-17T01:37:01.335Z,91.54
2023-01-17T01:38:04.767Z,91.56
2023-01-17T01:39:08.705Z,91.46
2023-01-17T01:40:12.800Z,91.29
2023-01-17T01:41:16.060Z,91.22
2023-01-17T01:42:18.959Z,91.45
2023-01-17T01:43:46.046Z,91.26
2023-01-17T01:44:54.287Z,91.51
2023-01-17T01:45:58.838Z,91.17
2023-01-17T01:47:02.606Z,91.27
2023-01-17T01:48:25.291Z,91.02
2023-01-17T01:49:29.658Z,91.34
2023-01-17T01:50:37.035Z,91.49
2023-01-17T01:51:43.802Z,91.58
2023-01-17T01:52:52.608Z,91.59
2023-01-17T01:54:03.736Z,91.19
2023-01-17T01:55:16.593Z,91.54
2023-01-17T01:56:26.208Z,91.17
2023-01-17T01:57:34.665Z,91.03
2023-01-17T01:58:41.652Z,91.39
2023-01-17T01:59:49.580Z,91.46
2023-01-17T02:00:52.984Z,91.42
2023-01-17T02:01:59.719Z,91.55
2023-01-17T02:03:08.023Z,91.46
2023-01-17T02:04:12.961Z,91.36
2023-01-17T02:05:20.585Z,91.32
2023-01-17T02:06:35.599Z,91.55
2023-01-17T02:07:45.702Z,91.41
2023-01-17T02:08:49.076Z,91.26
2023-01-17T02:09:52.988Z,91.35
2023-01-17T02:10:56.414Z,91.79
2023-01-17T02:11:59.440Z,91.62
2023-01-17T02:13:02.889Z,91.46
2023-01-17T02:14:06.503Z,91.45
2023-01-17T02:15:10.082Z,91.43
2023-01-17T02:16:31.897Z,91.31
2023-01-17T02:17:50.332Z,91.28
2023-01-17T02:19:15.367Z,91.33
2023-01-17T02:20:33.896Z,91.38
2023-01-17T02:21:51.709Z,91.35
2023-01-17T02:23:12.749Z,91.27
2023-01-17T02:24:30.928Z,91.40
2023-01-17T02:25:43.579Z,91.20
2023-01-17T02:27:07.123Z,91.40
2023-01-17T02:28:46.146Z,92.13
2023-01-17T02:32:35.226Z,91.80
2023-01-17T02:33:55.468Z,91.72
2023-01-17T02:35:28.312Z,92.01
2023-01-17T02:36:42.078Z,92.00
2023-01-17T02:38:09.436Z,92.13
2023-01-17T02:39:20.408Z,92.16
2023-01-17T02:40:29.646Z,92.59
2023-01-17T02:41:39.767Z,92.43
2023-01-17T02:42:50.246Z,92.29
2023-01-17T02:43:54.073Z,92.20
2023-01-17T02:44:57.442Z,92.71
2023-01-17T02:46:00.681Z,92.54
2023-01-17T02:47:22.110Z,92.63
2023-01-17T02:48:30.425Z,92.80
2023-01-17T02:49:33.650Z,92.65
2023-01-17T02:50:51.124Z,92.75
2023-01-17T02:51:56.797Z,93.53
2023-01-17T02:53:52.974Z,93.13
2023-01-17T02:55:20.711Z,93.19
2023-01-17T02:56:54.445Z,93.20
2023-01-17T02:58:16.856Z,93.22
2023-01-17T02:59:52.774Z,93.14
2023-01-17T03:01:35.153Z,93.27
2023-01-17T03:03:16.430Z,93.45
2023-01-17T03:04:31.409Z,93.41
2023-01-17T03:05:44.306Z,93.46
2023-01-17T03:06:55.925Z,93.44
2023-01-17T03:08:01.522Z,93.45
2023-01-17T03:09:05.998Z,93.91
2023-01-17T03:10:11.589Z,93.46
2023-01-17T03:11:15.183Z,93.91
2023-01-17T03:12:20.527Z,93.68
2023-01-17T03:13:23.934Z,94.22
2023-01-17T03:14:30.103Z,94.02
2023-01-17T03:15:33.099Z,94.24
2023-01-17T03:16:36.222Z,94.22
2023-01-17T03:17:42.806Z,94.16
2023-01-17T03:18:46.006Z,94.49
2023-01-17T03:19:48.962Z,94.37
2023-01-17T03:20:52.762Z,94.58
2023-01-17T03:21:55.758Z,94.73
2023-01-17T03:22:58.674Z,94.59
2023-01-17T03:24:03.192Z,94.93
2023-01-17T03:25:06.882Z,94.87
2023-01-17T03:26:09.914Z,95.23
2023-01-17T03:27:12.835Z,94.84
2023-01-17T03:28:15.848Z,94.85
2023-01-17T03:29:19.175Z,95.18
2023-01-17T03:30:23.202Z,95.26
2023-01-17T03:31:26.345Z,95.16
2023-01-17T03:32:29.888Z,95.38
2023-01-17T03:33:33.087Z,95.25
2023-01-17T03:34:36.300Z,95.37
2023-01-17T03:35:40.813Z,95.59
2023-01-17T03:36:46.022Z,95.37
2023-01-17T03:37:49.064Z,95.38
2023-01-17T03:38:52.152Z,95.34
2023-01-17T03:39:55.144Z,95.79
2023-01-17T03:40:58.353Z,95.53
2023-01-17T03:42:01.224Z,95.41
2023-01-17T03:43:04.222Z,95.50
2023-01-17T03:44:07.221Z,95.95
2023-01-17T03:45:10.818Z,95.50
2023-01-17T03:46:23.166Z,95.85
2023-01-17T03:47:26.160Z,95.86
2023-01-17T03:48:29.664Z,96.08
2023-01-17T03:49:32.611Z,96.18
2023-01-17T03:50:35.802Z,96.01
2023-01-17T03:51:38.791Z,96.30
2023-01-17T03:52:41.695Z,96.03
2023-01-17T03:53:47.032Z,95.99
2023-01-17T03:54:50.106Z,96.28
2023-01-17T03:55:53.175Z,96.00
2023-01-17T03:56:56.107Z,96.10
2023-01-17T03:57:59.026Z,96.16
2023-01-17T03:59:02.133Z,96.24
2023-01-17T04:00:05.777Z,96.16
2023-01-17T04:01:10.136Z,96.66
2023-01-17T04:02:13.355Z,96.09
2023-01-17T04:03:16.433Z,96.46
2023-01-17T04:04:19.379Z,96.31
2023-01-17T04:05:22.388Z,96.39
2023-01-17T04:06:25.427Z,96.31
2023-01-17T04:07:28.313Z,96.95
2023-01-17T04:08:31.447Z,96.74
2023-01-17T04:09:35.483Z,96.59
2023-01-17T04:10:38.390Z,96.95
2023-01-17T04:11:41.630Z,96.86
2023-01-17T04:12:44.627Z,96.62
2023-01-17T04:13:47.567Z,96.81
2023-01-17T04:14:50.514Z,96.83
2023-01-17T04:15:53.654Z,97.09
2023-01-17T04:16:57.422Z,97.03
2023-01-17T04:18:01.019Z,96.81
2023-01-17T04:19:04.033Z,97.04
2023-01-17T04:20:07.751Z,97.01
2023-01-17T04:21:10.818Z,97.05
2023-01-17T04:22:14.249Z,97.65
2023-01-17T04:23:17.829Z,97.62
2023-01-17T04:24:20.774Z,97.35
2023-01-17T04:25:25.802Z,97.38
2023-01-17T04:26:28.720Z,97.16
2023-01-17T04:27:31.880Z,97.22
2023-01-17T04:28:34.841Z,97.37
2023-01-17T04:29:37.837Z,97.65
2023-01-17T04:30:40.954Z,97.27
2023-01-17T04:31:44.081Z,97.23
2023-01-17T04:32:47.415Z,97.30
2023-01-17T04:33:50.334Z,97.72
2023-01-17T04:34:53.388Z,97.55
2023-01-17T04:35:56.398Z,98.08
2023-01-17T04:36:59.411Z,97.70
2023-01-17T04:38:03.313Z,97.79
2023-01-17T04:39:06.423Z,97.61
2023-01-17T04:40:11.342Z,97.62
2023-01-17T04:41:14.319Z,97.64
2023-01-17T04:42:17.291Z,97.94
2023-01-17T04:43:20.596Z,98.76
2023-01-17T04:44:23.590Z,98.60
2023-01-17T04:45:26.611Z,98.13
2023-01-17T04:46:29.646Z,98.08
2023-01-17T04:47:34.563Z,98.00
2023-01-17T04:48:38.321Z,98.04
2023-01-17T04:49:42.779Z,98.17
2023-01-17T04:50:47.120Z,98.36
2023-01-17T04:51:50.055Z,98.44
2023-01-17T04:52:52.973Z,98.58
2023-01-17T04:53:56.312Z,98.32
2023-01-17T04:54:59.300Z,98.40
2023-01-17T04:56:03.087Z,98.19
2023-01-17T04:57:06.100Z,98.30
2023-01-17T04:58:09.028Z,98.47
2023-01-17T04:59:12.093Z,98.33
2023-01-17T05:00:15.839Z,98.30
2023-01-17T05:01:18.855Z,98.47
2023-01-17T05:02:21.990Z,98.18
2023-01-17T05:03:25.253Z,98.29
2023-01-17T05:04:28.566Z,98.38
2023-01-17T05:05:31.506Z,98.70
2023-01-17T05:06:34.528Z,98.63
2023-01-17T05:07:37.414Z,98.61
2023-01-17T05:08:40.337Z,98.81
2023-01-17T05:09:43.919Z,98.61
2023-01-17T05:10:47.308Z,98.56
2023-01-17T05:11:50.500Z,98.71
2023-01-17T05:12:58.653Z,98.73
2023-01-17T05:14:01.643Z,98.97
2023-01-17T05:15:05.293Z,98.98
2023-01-17T05:16:08.343Z,98.78
2023-01-17T05:17:11.458Z,98.64
2023-01-17T05:18:16.621Z,98.67
2023-01-17T05:19:21.033Z,98.76
2023-01-17T05:20:26.226Z,98.75
2023-01-17T05:21:30.568Z,99.01
2023-01-17T05:22:33.476Z,98.79
2023-01-17T05:23:36.591Z,99.08
2023-01-17T05:24:40.026Z,98.91
2023-01-17T05:25:44.440Z,98.70
2023-01-17T05:26:54.720Z,98.97
2023-01-17T05:28:00.307Z,99.18
2023-01-17T05:29:03.360Z,98.74
2023-01-17T05:30:06.939Z,99.01
2023-01-17T05:31:10.170Z,98.86
2023-01-17T05:32:13.207Z,99.20
2023-01-17T05:33:16.233Z,99.20
2023-01-17T05:34:19.300Z,99.04
2023-01-17T05:35:25.458Z,99.12
2023-01-17T05:36:28.503Z,99.38
2023-01-17T05:37:31.426Z,98.62
2023-01-17T05:38:34.841Z,98.92
2023-01-17T05:39:37.817Z,98.89
2023-01-17T05:40:40.971Z,99.40
2023-01-17T05:41:44.461Z,99.28
2023-01-17T05:42:48.823Z,98.97
2023-01-17T05:43:51.860Z,98.78
2023-01-17T05:44:55.192Z,99.02
2023-01-17T05:45:58.305Z,98.97
2023-01-17T05:47:01.404Z,98.86
2023-01-17T05:48:04.887Z,99.31
2023-01-17T05:49:07.869Z,99.17
2023-01-17T05:50:12.983Z,98.98
2023-01-17T05:51:15.963Z,99.24
2023-01-17T05:52:20.588Z,98.91
2023-01-17T05:53:23.563Z,98.61
2023-01-17T05:54:26.617Z,99.00
2023-01-17T05:55:30.594Z,99.00
2023-01-17T05:56:34.160Z,98.84
2023-01-17T05:57:37.396Z,98.72
2023-01-17T05:58:40.367Z,98.56
2023-01-17T05:59:43.313Z,98.64
2023-01-17T06:00:46.982Z,98.72
2023-01-17T06:01:50.195Z,98.79
2023-01-17T06:02:54.957Z,99.15
2023-01-17T06:03:57.981Z,99.10
2023-01-17T06:05:03.341Z,98.74
2023-01-17T06:06:06.804Z,98.71
2023-01-17T06:07:10.018Z,98.61
2023-01-17T06:08:13.936Z,98.83
2023-01-17T06:09:16.880Z,98.69
2023-01-17T06:10:21.779Z,98.65
2023-01-17T06:11:24.861Z,98.54
2023-01-17T06:12:27.791Z,98.57
2023-01-17T06:13:30.818Z,98.69
2023-01-17T06:14:33.784Z,98.65
2023-01-17T06:15:38.343Z,98.74
2023-01-17T06:16:41.504Z,98.65
2023-01-17T06:17:44.534Z,98.61
2023-01-17T06:18:47.653Z,98.77
2023-01-17T06:19:50.571Z,98.75
2023-01-17T06:20:56.972Z,98.57
2023-01-17T06:21:59.991Z,98.66
2023-01-17T06:23:05.077Z,98.37
2023-01-17T06:24:08.222Z,98.57
2023-01-17T06:25:11.309Z,98.40
2023-01-17T06:26:14.246Z,97.94
2023-01-17T06:27:17.421Z,98.16
2023-01-17T06:28:21.899Z,98.57
2023-01-17T06:29:25.037Z,98.48
2023-01-17T06:30:28.185Z,98.62
2023-01-17T06:31:31.156Z,98.53
2023-01-17T06:32:34.289Z,98.52
2023-01-17T06:33:37.427Z,98.53
2023-01-17T06:34:41.277Z,98.40
2023-01-17T06:35:49.422Z,98.58
2023-01-17T06:36:52.443Z,98.52
2023-01-17T06:37:55.856Z,99.05
2023-01-17T06:38:58.974Z,98.79
2023-01-17T06:40:02.049Z,98.86
2023-01-17T06:41:05.908Z,99.08
2023-01-17T06:42:08.874Z,98.65
2023-01-17T06:43:11.978Z,98.60
2023-01-17T06:44:15.028Z,98.80
2023-01-17T06:45:19.155Z,99.08
2023-01-17T06:46:23.359Z,98.96
2023-01-17T06:47:26.439Z,98.66
2023-01-17T06:48:29.674Z,99.09
2023-01-17T06:49:33.191Z,98.85
2023-01-17T06:50:36.332Z,98.79
2023-01-17T06:51:39.444Z,98.82
2023-01-17T06:52:43.133Z,98.82
2023-01-17T06:53:48.580Z,98.91
2023-01-17T06:54:51.543Z,98.88
2023-01-17T06:55:57.806Z,99.06
2023-01-17T06:57:00.716Z,98.88
2023-01-17T06:58:03.724Z,98.50
2023-01-17T06:59:06.884Z,98.98
2023-01-17T07:00:10.802Z,98.82
2023-01-17T07:01:14.156Z,98.80
2023-01-17T07:02:17.416Z,98.63
2023-01-17T07:03:23.612Z,99.03
2023-01-17T07:04:26.660Z,98.99
2023-01-17T07:05:29.739Z,99.06
2023-01-17T07:06:35.187Z,98.98
2023-01-17T07:07:38.116Z,99.03
2023-01-17T07:08:41.023Z,98.84
2023-01-17T07:09:44.124Z,98.93
2023-01-17T07:10:47.999Z,98.89
2023-01-17T07:11:52.780Z,98.97
2023-01-17T07:13:00.774Z,98.94
2023-01-17T07:14:03.805Z,99.20
2023-01-17T07:15:07.802Z,99.06
2023-01-17T07:16:10.826Z,98.91
2023-01-17T07:17:13.828Z,98.99
2023-01-17T07:18:20.644Z,98.88
2023-01-17T07:19:24.480Z,98.92
2023-01-17T07:20:27.708Z,99.05
2023-01-17T07:21:30.848Z,98.80
2023-01-17T07:22:33.926Z,98.86
2023-01-17T07:23:36.943Z,98.91
2023-01-17T07:24:40.026Z,99.29
2023-01-17T07:25:43.103Z,99.21
2023-01-17T07:26:50.611Z,99.20
2023-01-17T07:27:55.163Z,99.11
2023-01-17T07:28:58.869Z,99.04
2023-01-17T07:30:01.929Z,99.06
2023-01-17T07:31:08.216Z,99.35
2023-01-17T07:32:11.273Z,98.98
2023-01-17T07:33:14.687Z,99.40
2023-01-17T07:34:17.702Z,99.13
2023-01-17T07:35:21.689Z,99.53
2023-01-17T07:36:24.758Z,99.52
2023-01-17T07:37:27.776Z,99.12
2023-01-17T07:38:30.793Z,99.12
2023-01-17T07:39:34.594Z,99.13
2023-01-17T07:40:42.010Z,99.30
2023-01-17T07:41:46.646Z,99.12
2023-01-17T07:42:49.605Z,99.30
2023-01-17T07:43:52.697Z,99.54
2023-01-17T07:44:56.184Z,99.49
2023-01-17T07:46:01.306Z,99.45
2023-01-17T07:47:05.014Z,99.17
2023-01-17T07:48:08.093Z,99.54
2023-01-17T07:49:11.156Z,99.11
2023-01-17T07:50:14.131Z,99.48
2023-01-17T07:51:18.020Z,99.34
2023-01-17T07:52:21.500Z,99.41
2023-01-17T07:53:27.102Z,99.28
2023-01-17T07:54:30.307Z,99.35
2023-01-17T07:55:33.231Z,99.57
2023-01-17T07:56:36.144Z,99.64
2023-01-17T07:57:39.059Z,99.51
2023-01-17T07:58:43.011Z,99.62
2023-01-17T07:59:46.634Z,99.53
2023-01-17T08:00:49.637Z,99.42
2023-01-17T08:01:53.145Z,99.41
2023-01-17T08:02:57.698Z,99.54
2023-01-17T08:04:00.903Z,99.65
2023-01-17T08:05:04.441Z,99.89
2023-01-17T08:06:20.146Z,99.31
2023-01-17T08:07:23.134Z,99.47
2023-01-17T08:08:26.407Z,99.44
2023-01-17T08:09:29.723Z,99.55
2023-01-17T08:10:32.949Z,99.67
2023-01-17T08:11:35.895Z,99.78
2023-01-17T08:12:38.853Z,99.62
2023-01-17T08:13:41.951Z,99.69
2023-01-17T08:14:45.339Z,99.93
2023-01-17T08:15:50.004Z,99.62
2023-01-17T08:16:53.308Z,99.57
2023-01-17T08:17:57.720Z,99.85
2023-01-17T08:19:00.813Z,99.61
2023-01-17T08:20:06.141Z,99.64
2023-01-17T08:21:13.450Z,99.73
2023-01-17T08:22:16.329Z,99.55
2023-01-17T08:23:19.267Z,99.89
2023-01-17T08:24:22.223Z,99.97
2023-01-17T08:25:26.630Z,99.85
2023-01-17T08:26:29.815Z,99.66
2023-01-17T08:27:34.533Z,99.76
2023-01-17T08:28:38.369Z,99.75
2023-01-17T08:29:47.103Z,99.62
2023-01-17T08:30:50.113Z,99.65
2023-01-17T08:31:54.184Z,99.73
2023-01-17T08:32:57.165Z,99.52
2023-01-17T08:34:00.436Z,99.79
2023-01-17T08:35:03.443Z,99.76
2023-01-17T08:36:06.447Z,99.92
2023-01-17T08:37:09.726Z,99.84
2023-01-17T08:38:12.889Z,99.96
2023-01-17T08:39:15.826Z,99.95
2023-01-17T08:40:19.767Z,99.74
2023-01-17T08:41:24.465Z,99.85
2023-01-17T08:42:27.582Z,99.59
2023-01-17T08:43:30.541Z,99.78
2023-01-17T08:44:33.455Z,99.85
2023-01-17T08:45:36.425Z,99.82
2023-01-17T08:46:39.874Z,99.74
2023-01-17T08:47:43.084Z,99.56
2023-01-17T08:48:46.477Z,99.79
2023-01-17T08:49:49.378Z,99.66
2023-01-17T08:50:52.475Z,99.54
2023-01-17T08:51:55.787Z,99.70
2023-01-17T08:53:01.057Z,99.53
2023-01-17T08:54:04.566Z,99.28
2023-01-17T08:55:10.424Z,99.38
2023-01-17T08:56:13.458Z,99.46
2023-01-17T08:57:16.422Z,99.57
2023-01-17T08:58:19.534Z,99.68
2023-01-17T08:59:22.526Z,99.40
2023-01-17T09:00:27.097Z,99.62
2023-01-17T09:01:30.541Z,99.38
2023-01-17T09:02:34.025Z,99.54
2023-01-17T09:03:40.710Z,99.22
2023-01-17T09:04:48.434Z,99.51
2023-01-17T09:06:20.312Z,99.52
2023-01-17T09:07:24.419Z,99.26
2023-01-17T09:08:27.742Z,99.41
2023-01-17T09:09:30.887Z,99.54
2023-01-17T09:10:33.864Z,99.54
2023-01-17T09:11:36.971Z,99.29
2023-01-17T09:12:40.464Z,99.22
2023-01-17T09:13:44.104Z,99.37
2023-01-17T09:14:47.299Z,99.60
2023-01-17T09:15:50.601Z,99.47
2023-01-17T09:16:53.573Z,99.45
2023-01-17T09:17:57.352Z,99.45
2023-01-17T09:19:00.839Z,99.33
2023-01-17T09:20:04.344Z,99.15
2023-01-17T09:21:16.146Z,99.25
2023-01-17T09:22:19.089Z,99.29
2023-01-17T09:23:23.046Z,99.10
2023-01-17T09:24:26.302Z,98.90
2023-01-17T09:25:29.517Z,98.96
2023-01-17T09:26:32.550Z,98.85
2023-01-17T09:27:35.641Z,98.81
2023-01-17T09:28:41.141Z,98.89
2023-01-17T09:29:44.530Z,98.82
2023-01-17T09:30:47.886Z,98.71
2023-01-17T09:31:51.063Z,98.82
2023-01-17T09:32:55.067Z,98.63
2023-01-17T09:33:59.295Z,98.82
2023-01-17T09:35:05.379Z,98.48
2023-01-17T09:36:10.391Z,98.37
2023-01-17T09:37:13.341Z,98.36
2023-01-17T09:38:16.668Z,98.16
2023-01-17T09:39:19.764Z,98.48
2023-01-17T09:40:25.575Z,98.22
2023-01-17T09:41:35.060Z,98.24
2023-01-17T09:42:40.554Z,98.57
2023-01-17T09:43:55.450Z,98.07
2023-01-17T09:44:59.468Z,98.06
2023-01-17T09:46:03.102Z,98.15
2023-01-17T09:47:18.508Z,97.87
2023-01-17T09:48:37.597Z,98.16
2023-01-17T09:49:45.993Z,97.72
2023-01-17T09:50:58.901Z,97.71
2023-01-17T09:52:02.386Z,97.80
2023-01-17T09:53:12.619Z,97.54
2023-01-17T09:54:22.846Z,97.22
2023-01-17T09:55:26.617Z,97.34
2023-01-17T09:56:36.445Z,97.65
2023-01-17T09:57:48.435Z,97.75
2023-01-17T09:59:20.021Z,98.03
2023-01-17T10:00:32.215Z,97.72
2023-01-17T10:01:46.106Z,97.59
2023-01-17T10:03:23.857Z,97.58
2023-01-17T10:04:39.417Z,97.32
2023-01-17T10:06:10.169Z,96.84
2023-01-17T10:07:32.432Z,97.00
2023-01-17T10:08:55.011Z,97.02
2023-01-17T10:10:24.377Z,96.82
2023-01-17T10:11:55.976Z,96.95
2023-01-17T10:13:14.299Z,97.08
2023-01-17T10:14:49.499Z,96.61
2023-01-17T10:16:17.290Z,96.66
2023-01-17T10:17:36.503Z,96.69
2023-01-17T10:18:57.721Z,96.60
2023-01-17T10:20:35.273Z,96.66
2023-01-17T10:22:02.570Z,96.56
2023-01-17T10:23:25.356Z,96.15
2023-01-17T10:25:01.472Z,95.75
2023-01-17T10:26:23.917Z,95.59
2023-01-17T10:27:57.018Z,95.14
2023-01-17T10:29:04.684Z,95.39
2023-01-17T10:30:21.370Z,95.37
2023-01-17T10:31:28.791Z,95.40
2023-01-17T10:32:33.431Z,94.95
2023-01-17T10:33:48.965Z,95.15
2023-01-17T10:34:53.406Z,95.19
2023-01-17T10:36:05.027Z,95.14
2023-01-17T10:37:20.688Z,95.26
2023-01-17T10:38:35.903Z,95.44
2023-01-17T10:39:39.414Z,95.04
2023-01-17T10:40:54.846Z,94.66
2023-01-17T10:42:13.442Z,95.05
2023-01-17T10:43:47.687Z,94.69
2023-01-17T10:45:05.505Z,94.89
2023-01-17T10:46:16.119Z,94.89
2023-01-17T10:47:24.464Z,94.35
2023-01-17T10:48:43.834Z,94.70
2023-01-17T10:49:50.205Z,94.25
2023-01-17T10:51:02.046Z,94.03
2023-01-17T10:52:26.373Z,94.11
2023-01-17T10:53:35.143Z,94.30
2023-01-17T10:54:53.127Z,94.29
2023-01-17T10:55:56.548Z,94.25
2023-01-17T10:56:59.676Z,93.76
2023-01-17T10:58:03.645Z,93.71
2023-01-17T10:59:18.620Z,94.03
2023-01-17T11:00:28.007Z,93.68
2023-01-17T11:01:34.650Z,93.73
2023-01-17T11:02:45.897Z,93.53
2023-01-17T11:03:54.695Z,93.37
2023-01-17T11:05:03.600Z,93.34
2023-01-17T11:06:24.988Z,92.89
2023-01-17T11:07:29.857Z,93.10
2023-01-17T11:08:59.787Z,93.19
2023-01-17T11:10:03.013Z,92.95
2023-01-17T11:11:06.779Z,93.03
2023-01-17T11:12:40.551Z,92.81
2023-01-17T11:13:48.878Z,93.15
2023-01-17T11:15:12.373Z,93.19
2023-01-17T11:16:21.793Z,93.32
2023-01-17T11:17:27.856Z,92.97
2023-01-17T11:18:35.736Z,93.06
2023-01-17T11:19:39.546Z,93.05
2023-01-17T11:20:43.708Z,92.84
2023-01-17T11:21:56.033Z,92.56
2023-01-17T11:23:14.896Z,92.49
2023-01-17T11:24:28.358Z,92.23
2023-01-17T11:25:35.965Z,92.69
2023-01-17T11:26:47.576Z,92.34
2023-01-17T11:28:00.606Z,92.21
2023-01-17T11:29:33.051Z,91.63
2023-01-17T11:30:37.187Z,91.74
2023-01-17T11:31:40.443Z,91.66
2023-01-17T11:32:56.107Z,91.63
2023-01-17T11:34:13.706Z,91.54
2023-01-17T11:35:25.660Z,91.21
2023-01-17T11:36:30.788Z,91.73
2023-01-17T11:37:35.391Z,91.38
2023-01-17T11:38:38.596Z,91.11
2023-01-17T11:39:43.555Z,90.55
2023-01-17T11:40:48.864Z,89.58
2023-01-17T11:41:52.947Z,90.28
2023-01-17T11:43:18.749Z,89.85
2023-01-17T11:44:28.223Z,90.44
2023-01-17T11:45:33.953Z,90.03
2023-01-17T11:46:38.326Z,89.75
2023-01-17T11:47:42.036Z,89.73
2023-01-17T11:49:03.049Z,89.86
2023-01-17T11:50:24.016Z,89.75
2023-01-17T11:51:33.440Z,90.17
2023-01-17T11:52:39.147Z,89.58
2023-01-17T11:53:48.822Z,89.98
2023-01-17T11:54:54.768Z,89.73
2023-01-17T11:56:06.126Z,89.06
2023-01-17T11:57:27.769Z,89.07
2023-01-17T11:58:34.651Z,89.11
2023-01-17T11:59:44.167Z,89.51
2023-01-17T12:00:53.578Z,88.39
2023-01-17T12:02:19.891Z,88.69
2023-01-17T12:03:39.593Z,89.05
2023-01-17T12:04:58.644Z,89.55
2023-01-17T12:06:26.610Z,89.01
2023-01-17T12:07:52.907Z,88.99
2023-01-17T12:08:58.640Z,88.56
2023-01-17T12:10:19.896Z,87.91
2023-01-17T12:11:36.034Z,88.29
2023-01-17T12:13:14.307Z,88.83
2023-01-17T12:14:49.167Z,88.49
2023-01-17T12:16:34.194Z,88.78
2023-01-17T12:18:20.769Z,88.83
2023-01-17T12:20:01.179Z,87.99
2023-01-17T12:21:22.102Z,88.30
2023-01-17T12:22:49.505Z,88.54
2023-01-17T12:24:19.415Z,88.64
2023-01-17T12:25:59.724Z,88.11
2023-01-17T12:27:34.940Z,88.15
2023-01-17T12:28:55.396Z,88.52
2023-01-17T12:30:10.821Z,88.41
2023-01-17T12:31:37.263Z,88.07
2023-01-17T12:33:06.552Z,88.59
2023-01-17T12:34:27.842Z,88.46
2023-01-17T12:35:41.262Z,88.24
2023-01-17T12:37:02.340Z,88.59
2023-01-17T12:38:33.318Z,88.46
2023-01-17T12:39:42.036Z,88.41
2023-01-17T12:41:16.529Z,88.58
2023-01-17T12:42:24.251Z,88.55
2023-01-17T12:43:33.093Z,88.62
2023-01-17T12:44:41.632Z,88.51
2023-01-17T12:45:47.318Z,88.35
2023-01-17T12:46:59.201Z,88.25
2023-01-17T12:48:10.237Z,88.10
2023-01-17T12:49:39.682Z,88.26
2023-01-17T12:50:51.380Z,88.58
2023-01-17T12:52:13.212Z,88.21
2023-01-17T12:53:50.999Z,87.95
2023-01-17T12:55:00.490Z,87.88
2023-01-17T12:56:09.109Z,88.43
2023-01-17T12:57:18.953Z,88.47
2023-01-17T12:58:26.879Z,88.53
2023-01-17T12:59:40.717Z,88.59
2023-01-17T13:00:48.893Z,88.74
2023-01-17T13:01:57.774Z,88.46
2023-01-17T13:03:20.670Z,88.36
2023-01-17T13:04:58.789Z,88.47
2023-01-17T13:06:06.267Z,88.75
2023-01-17T13:07:50.689Z,88.87
2023-01-17T13:08:58.205Z,88.92
2023-01-17T13:10:40.468Z,89.13
2023-01-17T13:11:51.911Z,89.05
2023-01-17T13:13:00.622Z,89.15
2023-01-17T13:14:09.434Z,89.20
2023-01-17T13:15:20.730Z,88.92
2023-01-17T13:16:30.078Z,88.40
2023-01-17T13:17:45.194Z,88.49
2023-01-17T13:18:49.412Z,88.40
2023-01-17T13:20:06.618Z,88.35
2023-01-17T13:21:28.110Z,88.46
2023-01-17T13:22:32.718Z,88.66
2023-01-17T13:24:03.995Z,88.44
2023-01-17T13:25:26.377Z,88.34
2023-01-17T13:26:55.781Z,88.23
2023-01-17T13:28:05.815Z,88.34
2023-01-17T13:29:29.756Z,88.42
2023-01-17T13:30:43.545Z,88.52
2023-01-17T13:31:51.837Z,88.40
2023-01-17T13:33:03.699Z,88.65
2023-01-17T13:34:48.053Z,88.45
2023-01-17T13:36:03.429Z,88.29
2023-01-17T13:37:42.595Z,87.90
2023-01-17T13:39:17.154Z,88.11
2023-01-17T13:40:32.881Z,88.47
2023-01-17T13:41:36.866Z,88.40
2023-01-17T13:43:00.389Z,88.37
2023-01-17T13:44:21.746Z,87.98
2023-01-17T13:45:29.570Z,88.03
2023-01-17T13:47:11.365Z,88.21
2023-01-17T13:48:14.747Z,88.30
2023-01-17T13:49:34.014Z,88.20
2023-01-17T13:50:46.083Z,87.78
2023-01-17T13:52:12.195Z,87.74
2023-01-17T13:53:33.661Z,87.95
2023-01-17T13:55:04.179Z,87.84
2023-01-17T13:56:19.552Z,88.16
2023-01-17T13:57:27.331Z,88.21
2023-01-17T13:58:51.945Z,88.25
2023-01-17T13:59:59.787Z,87.93
2023-01-17T14:01:02.794Z,87.95
2023-01-17T14:02:31.435Z,87.93
2023-01-17T14:03:46.579Z,87.89
2023-01-17T14:05:08.174Z,88.04
2023-01-17T14:06:36.356Z,88.26
2023-01-17T14:07:43.517Z,87.93
2023-01-17T14:08:47.408Z,88.09
2023-01-17T14:09:51.113Z,87.99
2023-01-17T14:11:04.268Z,88.22
2023-01-17T14:12:31.714Z,88.55
2023-01-17T14:13:37.444Z,88.49
2023-01-17T14:14:40.557Z,88.49
2023-01-17T14:15:49.976Z,88.48
2023-01-17T14:16:53.133Z,88.52
2023-01-17T14:17:59.498Z,88.92
2023-01-17T14:19:04.442Z,89.05
2023-01-17T14:20:07.731Z,88.54
2023-01-17T14:21:25.155Z,88.73
2023-01-17T14:22:31.744Z,88.65
2023-01-17T14:23:48.901Z,88.82
2023-01-17T14:25:15.032Z,88.66
2023-01-17T14:26:23.564Z,89.06
2023-01-17T14:27:29.219Z,89.30
2023-01-17T14:28:32.816Z,88.87
2023-01-17T14:29:50.789Z,88.97
2023-01-17T14:30:56.413Z,89.08
2023-01-17T14:32:02.155Z,89.03
2023-01-17T14:33:17.334Z,89.15
2023-01-17T14:34:22.290Z,89.04
2023-01-17T14:35:30.458Z,88.79
2023-01-17T14:36:33.518Z,88.92
2023-01-17T14:37:45.500Z,88.72
2023-01-17T14:38:48.416Z,88.52
2023-01-17T14:39:51.797Z,88.76
2023-01-17T14:40:56.172Z,88.25
2023-01-17T14:41:59.183Z,88.74
2023-01-17T14:43:14.207Z,88.65
2023-01-17T14:44:17.499Z,88.68
2023-01-17T14:45:26.774Z,88.85
2023-01-17T14:46:34.251Z,88.43
2023-01-17T14:47:39.647Z,88.32
2023-01-17T14:48:43.624Z,88.21
2023-01-17T14:49:46.742Z,88.36
2023-01-17T14:50:52.104Z,88.27
2023-01-17T14:52:06.510Z,88.15
2023-01-17T14:53:12.606Z,88.13
2023-01-17T14:54:22.100Z,88.31
2023-01-17T14:55:27.708Z,88.30
2023-01-17T14:56:35.135Z,88.32
2023-01-17T14:57:38.194Z,88.05
2023-01-17T14:58:46.715Z,87.99
2023-01-17T14:59:49.852Z,88.15